createdAt,value
2023-03-08T00:02:05.201Z,11.18
2023-03-08T00:04:31.836Z,10.08
2023-03-08T00:06:58.513Z,10.52
2023-03-08T00:09:25.121Z,11.04
2023-03-08T00:11:51.783Z,11.18
2023-03-08T00:14:18.742Z,11.32
2023-03-08T00:16:45.388Z,11.50
2023-03-08T00:19:12.000Z,11.04
2023-03-08T00:21:38.575Z,11.03
2023-03-08T00:24:05.543Z,11.22
2023-03-08T00:26:32.217Z,11.27
2023-03-08T00:28:58.911Z,11.17
2023-03-08T00:31:25.734Z,10.39
2023-03-08T00:33:54.145Z,10.02
2023-03-08T00:36:21.104Z,10.41
2023-03-08T00:38:48.413Z,10.69
2023-03-08T00:41:15.398Z,10.93
2023-03-08T00:43:42.478Z,10.98
2023-03-08T00:46:09.727Z,10.93
2023-03-08T00:48:36.458Z,10.90
2023-03-08T00:51:03.216Z,10.87
2023-03-08T00:53:30.079Z,11.04
2023-03-08T00:55:58.883Z,11.14
2023-03-08T00:58:28.505Z,11.19
2023-03-08T01:00:55.414Z,10.88
2023-03-08T01:03:22.376Z,11.16
2023-03-08T01:05:52.282Z,10.96
2023-03-08T01:08:20.283Z,11.02
2023-03-08T01:10:56.931Z,10.47
2023-03-08T01:13:25.964Z,10.69
2023-03-08T01:15:52.659Z,10.46
2023-03-08T01:18:19.493Z,10.75
2023-03-08T01:20:56.072Z,10.77
2023-03-08T01:23:22.818Z,10.63
2023-03-08T01:25:49.480Z,10.70
2023-03-08T01:28:16.085Z,10.59
2023-03-08T01:30:42.669Z,10.87
2023-03-08T01:33:09.260Z,11.00
2023-03-08T01:35:38.003Z,10.90
2023-03-08T01:38:04.590Z,10.31
2023-03-08T01:40:31.226Z,9.70
2023-03-08T01:42:57.936Z,10.05
2023-03-08T01:46:15.642Z,10.08
2023-03-08T01:48:50.918Z,10.43
2023-03-08T01:51:24.443Z,10.49
2023-03-08T01:53:52.425Z,10.64
2023-03-08T01:56:20.652Z,10.26
2023-03-08T01:58:50.643Z,10.33
2023-03-08T02:01:19.375Z,10.06
2023-03-08T02:03:47.131Z,10.24
2023-03-08T02:06:16.095Z,10.29
2023-03-08T02:08:43.264Z,10.20
2023-03-08T02:11:11.315Z,10.24
2023-03-08T02:13:38.856Z,10.02
2023-03-08T02:16:09.360Z,9.79
2023-03-08T02:18:36.099Z,9.85
2023-03-08T02:21:02.729Z,9.98
2023-03-08T02:23:29.401Z,10.15
2023-03-08T02:26:00.792Z,10.21
2023-03-08T02:28:28.807Z,10.34
2023-03-08T02:30:56.187Z,10.27
2023-03-08T02:33:23.625Z,10.33
2023-03-08T02:35:50.962Z,10.38
2023-03-08T02:38:19.760Z,10.27
2023-03-08T02:40:46.779Z,10.14
2023-03-08T02:43:13.415Z,9.50
2023-03-08T02:45:40.190Z,9.11
2023-03-08T02:48:07.277Z,8.79
2023-03-08T02:50:33.944Z,8.85
2023-03-08T02:53:00.512Z,8.68
2023-03-08T02:55:27.361Z,9.09
2023-03-08T02:57:54.193Z,9.31
2023-03-08T03:00:21.110Z,8.74
2023-03-08T03:02:47.805Z,8.94
2023-03-08T03:05:14.471Z,9.21
2023-03-08T03:07:42.981Z,9.17
2023-03-08T03:10:12.920Z,9.65
2023-03-08T03:12:40.603Z,9.70
2023-03-08T03:15:09.005Z,9.73
2023-03-08T03:17:37.185Z,9.43
2023-03-08T03:20:11.861Z,9.37
2023-03-08T03:22:38.497Z,9.30
2023-03-08T03:25:06.009Z,9.30
2023-03-08T03:27:32.719Z,8.57
2023-03-08T03:29:59.359Z,9.21
2023-03-08T03:32:26.003Z,9.38
2023-03-08T03:34:52.748Z,9.74
2023-03-08T03:37:19.384Z,9.47
2023-03-08T03:39:45.990Z,9.54
2023-03-08T03:42:12.692Z,9.23
2023-03-08T03:44:39.403Z,9.57
2023-03-08T03:47:06.597Z,9.58
2023-03-08T03:49:33.633Z,9.69
2023-03-08T03:52:00.253Z,9.64
2023-03-08T03:54:26.890Z,8.94
2023-03-08T03:56:55.525Z,8.97
2023-03-08T03:59:22.237Z,8.87
2023-03-08T04:01:48.824Z,8.69
2023-03-08T04:04:15.428Z,9.21
2023-03-08T04:06:42.173Z,8.20
2023-03-08T04:09:14.253Z,9.01
2023-03-08T04:11:41.544Z,9.15
2023-03-08T04:14:08.572Z,9.29
2023-03-08T04:16:37.539Z,9.58
2023-03-08T04:19:07.481Z,9.02
2023-03-08T04:21:34.577Z,9.12
2023-03-08T04:24:01.198Z,9.35
2023-03-08T04:26:28.220Z,9.49
2023-03-08T04:28:54.948Z,8.66
2023-03-08T04:31:24.717Z,8.49
2023-03-08T04:33:52.220Z,8.31
2023-03-08T04:36:19.534Z,8.92
2023-03-08T04:38:47.228Z,8.97
2023-03-08T04:41:14.200Z,9.01
2023-03-08T04:43:52.409Z,9.05
2023-03-08T04:46:22.230Z,8.50
2023-03-08T04:48:49.093Z,8.46
2023-03-08T04:51:16.816Z,8.88
2023-03-08T04:53:45.435Z,8.88
2023-03-08T04:56:14.527Z,9.00
2023-03-08T04:58:41.526Z,8.88
2023-03-08T05:01:13.935Z,8.73
2023-03-08T05:03:40.947Z,9.00
2023-03-08T05:06:08.640Z,9.02
2023-03-08T05:08:35.752Z,8.53
2023-03-08T05:11:02.932Z,8.75
2023-03-08T05:13:32.895Z,8.95
2023-03-08T05:15:59.632Z,9.32
2023-03-08T05:18:26.264Z,9.41
2023-03-08T05:20:58.319Z,9.19
2023-03-08T05:23:28.499Z,9.31
2023-03-08T05:25:58.144Z,9.05
2023-03-08T05:28:27.612Z,9.04
2023-03-08T05:31:04.633Z,9.18
2023-03-08T05:33:31.842Z,8.99
2023-03-08T05:35:58.560Z,9.28
2023-03-08T05:38:25.862Z,9.40
2023-03-08T05:40:52.912Z,9.40
2023-03-08T05:43:20.229Z,8.44
2023-03-08T05:46:07.454Z,8.32
2023-03-08T05:48:36.156Z,8.71
2023-03-08T05:51:07.942Z,8.69
2023-03-08T05:53:35.489Z,8.60
2023-03-08T05:56:19.484Z,8.60
2023-03-08T05:58:48.178Z,8.79
2023-03-08T06:01:25.187Z,8.86
2023-03-08T06:03:57.397Z,8.25
2023-03-08T06:06:28.098Z,8.16
2023-03-08T06:08:56.370Z,7.24
2023-03-08T06:11:23.432Z,7.69
2023-03-08T06:13:52.958Z,7.63
2023-03-08T06:16:19.642Z,8.29
2023-03-08T06:18:46.253Z,8.62
2023-03-08T06:21:15.523Z,7.91
2023-03-08T06:23:42.536Z,8.39
2023-03-08T06:26:10.539Z,8.59
2023-03-08T06:28:40.222Z,8.95
2023-03-08T06:31:07.704Z,9.28
2023-03-08T06:33:34.847Z,9.72
2023-03-08T06:36:07.512Z,9.17
2023-03-08T06:38:36.260Z,9.58
2023-03-08T06:41:03.650Z,9.49
2023-03-08T06:43:30.304Z,8.91
2023-03-08T06:45:56.979Z,8.67
2023-03-08T06:48:24.039Z,8.89
2023-03-08T06:50:50.850Z,9.56
2023-03-08T06:53:17.512Z,9.25
2023-03-08T06:55:44.103Z,9.53
2023-03-08T06:58:10.745Z,9.11
2023-03-08T07:00:37.890Z,9.46
2023-03-08T07:03:04.756Z,8.89
2023-03-08T07:05:31.699Z,9.69
2023-03-08T07:07:58.653Z,10.46
2023-03-08T07:10:25.220Z,10.39
2023-03-08T07:12:51.884Z,9.96
2023-03-08T07:15:21.435Z,10.58
2023-03-08T07:17:50.437Z,10.31
2023-03-08T07:20:19.368Z,9.80
2023-03-08T07:22:46.842Z,10.40
2023-03-08T07:25:16.376Z,9.72
2023-03-08T07:27:43.769Z,10.13
2023-03-08T07:30:12.482Z,9.89
2023-03-08T07:32:40.956Z,9.61
2023-03-08T07:35:09.511Z,9.47
2023-03-08T07:37:36.177Z,10.19
2023-03-08T07:40:04.823Z,11.11
2023-03-08T07:42:31.964Z,10.52
2023-03-08T07:44:58.679Z,9.65
2023-03-08T07:47:25.320Z,9.87
2023-03-08T07:49:52.012Z,10.31
2023-03-08T07:52:18.616Z,11.11
2023-03-08T07:54:45.312Z,11.25
2023-03-08T07:57:15.528Z,11.01
2023-03-08T07:59:42.504Z,11.31
2023-03-08T08:02:13.642Z,11.25
2023-03-08T08:04:41.153Z,11.84
2023-03-08T08:07:12.800Z,11.19
2023-03-08T08:09:39.761Z,11.84
2023-03-08T08:12:06.667Z,11.26
2023-03-08T08:14:33.581Z,11.21
2023-03-08T08:17:00.870Z,11.20
2023-03-08T08:19:27.588Z,11.15
2023-03-08T08:21:54.188Z,11.18
2023-03-08T08:24:20.805Z,11.86
2023-03-08T08:26:47.505Z,10.82
2023-03-08T08:29:14.564Z,11.34
2023-03-08T08:31:41.345Z,11.23
2023-03-08T08:34:08.488Z,11.22
2023-03-08T08:36:35.296Z,11.18
2023-03-08T08:39:02.242Z,11.85
2023-03-08T08:41:29.816Z,11.87
2023-03-08T08:43:59.041Z,12.42
2023-03-08T08:46:28.061Z,12.92
2023-03-08T08:48:56.393Z,12.25
2023-03-08T08:51:23.575Z,11.74
2023-03-08T08:53:51.318Z,12.15
2023-03-08T08:56:26.668Z,13.14
2023-03-08T08:58:55.965Z,13.02
2023-03-08T09:01:25.688Z,13.28
2023-03-08T09:03:52.610Z,12.73
2023-03-08T09:06:21.081Z,12.98
2023-03-08T09:08:56.750Z,12.93
2023-03-08T09:11:24.839Z,12.98
2023-03-08T09:13:52.213Z,13.42
2023-03-08T09:16:45.391Z,13.45
2023-03-08T09:19:12.496Z,12.94
2023-03-08T09:21:39.314Z,13.58
2023-03-08T09:24:07.008Z,13.30
2023-03-08T09:26:38.231Z,13.93
2023-03-08T09:29:05.612Z,13.95
2023-03-08T09:31:35.009Z,14.21
2023-03-08T09:34:04.750Z,13.64
2023-03-08T09:36:31.626Z,14.34
2023-03-08T09:38:58.217Z,13.80
2023-03-08T09:41:33.744Z,13.53
2023-03-08T09:44:28.338Z,14.01
2023-03-08T09:47:16.279Z,12.90
2023-03-08T09:49:46.993Z,13.47
2023-03-08T09:52:31.009Z,13.10
2023-03-08T09:55:03.073Z,12.90
2023-03-08T09:57:37.063Z,13.40
2023-03-08T10:00:09.196Z,13.53
2023-03-08T10:03:04.055Z,13.27
2023-03-08T10:05:41.351Z,13.54
2023-03-08T10:08:17.265Z,14.12
2023-03-08T10:11:04.339Z,13.78
2023-03-08T10:13:32.543Z,14.15
2023-03-08T10:16:12.777Z,14.44
2023-03-08T10:18:53.270Z,14.05
2023-03-08T10:21:25.061Z,13.56
2023-03-08T10:24:27.078Z,13.97
2023-03-08T10:27:00.498Z,14.40
2023-03-08T10:29:27.250Z,13.85
2023-03-08T10:31:53.866Z,14.28
2023-03-08T10:34:25.629Z,14.34
2023-03-08T10:37:00.795Z,13.93
2023-03-08T10:39:28.216Z,13.77
2023-03-08T10:41:59.403Z,14.66
2023-03-08T10:44:40.788Z,14.48
2023-03-08T10:47:29.608Z,14.12
2023-03-08T10:50:05.176Z,14.37
2023-03-08T10:52:31.927Z,14.38
2023-03-08T10:55:06.982Z,14.48
2023-03-08T10:57:33.845Z,14.84
2023-03-08T11:00:21.347Z,14.56
2023-03-08T11:02:48.453Z,14.49
2023-03-08T11:05:26.571Z,14.60
2023-03-08T11:07:55.473Z,14.34
2023-03-08T11:10:25.263Z,14.55
2023-03-08T11:13:02.003Z,14.69
2023-03-08T11:15:31.194Z,14.77
2023-03-08T11:18:12.120Z,14.86
2023-03-08T11:20:55.751Z,14.65
2023-03-08T11:23:56.650Z,14.86
2023-03-08T11:26:44.836Z,15.16
2023-03-08T11:29:31.663Z,14.86
2023-03-08T11:32:04.670Z,15.15
2023-03-08T11:34:31.227Z,14.98
2023-03-08T11:37:36.126Z,14.70
2023-03-08T11:40:42.500Z,15.09
2023-03-08T11:43:40.083Z,14.52
2023-03-08T11:46:10.842Z,15.38
2023-03-08T11:48:55.660Z,15.15
2023-03-08T11:52:07.183Z,15.43
2023-03-08T11:55:02.204Z,15.75
2023-03-08T11:57:35.666Z,15.70
2023-03-08T12:00:32.410Z,15.94
2023-03-08T12:03:06.304Z,15.85
2023-03-08T12:05:39.225Z,15.34
2023-03-08T12:08:32.608Z,15.42
2023-03-08T12:11:06.731Z,15.49
2023-03-08T12:13:36.719Z,15.57
2023-03-08T12:16:13.656Z,15.46
2023-03-08T12:19:06.640Z,15.64
2023-03-08T12:21:49.361Z,15.91
2023-03-08T12:24:33.331Z,16.34
2023-03-08T12:27:05.237Z,16.25
2023-03-08T12:29:46.042Z,16.38
2023-03-08T12:32:14.215Z,15.79
2023-03-08T12:34:44.608Z,15.96
2023-03-08T12:37:25.896Z,15.76
2023-03-08T12:40:27.910Z,15.89
2023-03-08T12:43:19.884Z,16.61
2023-03-08T12:46:08.412Z,16.68
2023-03-08T12:48:39.867Z,15.91
2023-03-08T12:51:09.889Z,16.41
2023-03-08T12:54:03.300Z,16.79
2023-03-08T12:56:36.864Z,16.99
2023-03-08T12:59:14.972Z,16.54
2023-03-08T13:01:59.424Z,16.81
2023-03-08T13:04:40.904Z,16.28
2023-03-08T13:07:52.688Z,15.78
2023-03-08T13:10:23.608Z,16.04
2023-03-08T13:13:10.482Z,16.44
2023-03-08T13:15:40.026Z,15.68
2023-03-08T13:18:08.491Z,16.02
2023-03-08T13:20:42.079Z,16.13
2023-03-08T13:23:43.123Z,16.30
2023-03-08T13:26:09.737Z,15.90
2023-03-08T13:28:47.560Z,15.73
2023-03-08T13:31:29.407Z,16.70
2023-03-08T13:33:59.190Z,16.04
2023-03-08T13:36:29.720Z,15.91
2023-03-08T13:38:56.230Z,16.37
2023-03-08T13:41:52.358Z,16.00
2023-03-08T13:44:25.083Z,15.55
2023-03-08T13:46:55.233Z,15.13
2023-03-08T13:49:29.367Z,15.22
2023-03-08T13:51:58.954Z,15.65
2023-03-08T13:54:37.721Z,15.54
2023-03-08T13:57:15.775Z,15.68
2023-03-08T13:59:49.247Z,15.59
2023-03-08T14:02:23.193Z,15.64
2023-03-08T14:04:50.274Z,16.25
2023-03-08T14:07:34.830Z,15.89
2023-03-08T14:10:02.254Z,15.55
2023-03-08T14:12:32.936Z,15.13
2023-03-08T14:15:03.642Z,15.57
2023-03-08T14:17:34.551Z,15.59
2023-03-08T14:20:06.932Z,15.82
2023-03-08T14:22:40.420Z,16.23
2023-03-08T14:25:40.538Z,16.51
2023-03-08T14:28:33.807Z,16.46
2023-03-08T14:31:01.357Z,16.49
2023-03-08T14:33:41.696Z,16.49
2023-03-08T14:36:10.095Z,16.47
2023-03-08T14:38:37.060Z,16.65
2023-03-08T14:41:10.351Z,16.52
2023-03-08T14:43:37.729Z,16.15
2023-03-08T14:46:06.793Z,15.83
2023-03-08T14:48:38.164Z,15.62
2023-03-08T14:51:27.976Z,15.77
2023-03-08T14:54:02.256Z,15.44
2023-03-08T14:56:30.859Z,15.40
2023-03-08T14:59:00.930Z,15.17
2023-03-08T15:01:38.690Z,15.35
2023-03-08T15:04:20.856Z,15.33
2023-03-08T15:06:50.362Z,15.41
2023-03-08T15:09:19.823Z,14.92
2023-03-08T15:11:54.898Z,15.25
2023-03-08T15:14:21.647Z,15.48
2023-03-08T15:16:51.761Z,15.45
2023-03-08T15:19:21.765Z,15.59
2023-03-08T15:21:49.093Z,15.76
2023-03-08T15:24:21.093Z,15.40
2023-03-08T15:26:47.732Z,14.72
2023-03-08T15:29:28.079Z,15.04
2023-03-08T15:31:58.744Z,14.97
2023-03-08T15:34:29.226Z,15.20
2023-03-08T15:36:56.965Z,15.67
2023-03-08T15:39:24.605Z,15.66
2023-03-08T15:41:52.113Z,15.42
2023-03-08T15:44:22.074Z,15.80
2023-03-08T15:46:50.369Z,15.23
2023-03-08T15:49:23.355Z,15.02
2023-03-08T15:51:56.683Z,15.41
2023-03-08T15:54:23.798Z,15.29
2023-03-08T15:56:54.987Z,15.24
2023-03-08T15:59:24.681Z,15.55
2023-03-08T16:01:52.154Z,15.69
2023-03-08T16:04:18.819Z,15.91
2023-03-08T16:06:45.380Z,14.83
2023-03-08T16:09:12.034Z,15.17
2023-03-08T16:11:38.692Z,15.63
2023-03-08T16:14:05.419Z,15.55
2023-03-08T16:16:44.285Z,15.68
2023-03-08T16:19:11.672Z,15.66
2023-03-08T16:21:38.306Z,15.67
2023-03-08T16:24:05.291Z,15.62
2023-03-08T16:26:31.951Z,15.49
2023-03-08T16:28:58.648Z,14.84
2023-03-08T16:31:25.302Z,15.29
2023-03-08T16:33:51.938Z,15.49
2023-03-08T16:36:19.392Z,15.37
2023-03-08T16:38:45.957Z,15.03
2023-03-08T16:41:14.092Z,15.21
2023-03-08T16:43:48.373Z,15.13
2023-03-08T16:46:21.304Z,15.07
2023-03-08T16:48:51.811Z,15.32
2023-03-08T16:51:24.640Z,15.17
2023-03-08T16:53:51.607Z,14.75
2023-03-08T16:56:26.624Z,15.00
2023-03-08T16:58:55.029Z,14.86
2023-03-08T17:01:22.586Z,14.93
2023-03-08T17:03:49.602Z,15.07
2023-03-08T17:06:20.033Z,15.00
2023-03-08T17:08:47.241Z,15.06
2023-03-08T17:11:18.115Z,15.09
2023-03-08T17:13:50.891Z,14.75
2023-03-08T17:16:19.971Z,14.79
2023-03-08T17:18:48.086Z,14.57
2023-03-08T17:21:14.929Z,14.66
2023-03-08T17:23:41.871Z,14.70
2023-03-08T17:26:10.467Z,14.77
2023-03-08T17:28:38.362Z,14.40
2023-03-08T17:31:10.566Z,14.33
2023-03-08T17:33:37.654Z,13.92
2023-03-08T17:36:06.128Z,14.09
2023-03-08T17:38:34.198Z,14.11
2023-03-08T17:41:05.445Z,13.33
2023-03-08T17:43:32.066Z,13.61
2023-03-08T17:46:00.432Z,13.69
2023-03-08T17:48:27.177Z,13.97
2023-03-08T17:50:54.852Z,14.19
2023-03-08T17:53:27.778Z,14.14
2023-03-08T17:56:07.162Z,14.32
2023-03-08T17:58:35.168Z,14.23
2023-03-08T18:01:20.151Z,14.23
2023-03-08T18:03:48.782Z,14.26
2023-03-08T18:06:35.652Z,13.91
2023-03-08T18:09:10.644Z,13.37
2023-03-08T18:11:38.799Z,13.71
2023-03-08T18:14:08.841Z,13.59
2023-03-08T18:16:35.667Z,13.82
2023-03-08T18:19:06.178Z,13.63
2023-03-08T18:21:35.092Z,13.70
2023-03-08T18:24:05.449Z,13.31
2023-03-08T18:26:33.357Z,13.30
2023-03-08T18:29:03.630Z,13.51
2023-03-08T18:31:34.350Z,13.58
2023-03-08T18:34:02.953Z,13.81
2023-03-08T18:36:29.707Z,13.83
2023-03-08T18:38:56.358Z,13.61
2023-03-08T18:41:27.356Z,13.41
2023-03-08T18:44:01.442Z,12.95
2023-03-08T18:46:41.256Z,13.29
2023-03-08T18:49:17.061Z,13.46
2023-03-08T18:51:43.869Z,13.37
2023-03-08T18:54:14.266Z,13.07
2023-03-08T18:56:52.144Z,13.25
2023-03-08T18:59:25.244Z,13.63
2023-03-08T19:01:54.336Z,13.51
2023-03-08T19:04:21.089Z,12.93
2023-03-08T19:06:47.703Z,13.23
2023-03-08T19:09:16.546Z,13.02
2023-03-08T19:11:43.738Z,12.95
2023-03-08T19:14:12.460Z,12.64
2023-03-08T19:16:39.297Z,12.90
2023-03-08T19:19:09.273Z,12.79
2023-03-08T19:21:38.787Z,12.54
2023-03-08T19:24:05.788Z,12.83
2023-03-08T19:26:37.758Z,12.67
2023-03-08T19:29:12.350Z,12.57
2023-03-08T19:31:44.920Z,12.69
2023-03-08T19:34:13.735Z,12.78
2023-03-08T19:36:41.808Z,12.58
2023-03-08T19:39:12.942Z,12.67
2023-03-08T19:41:39.554Z,12.42
2023-03-08T19:44:07.660Z,12.96
2023-03-08T19:46:36.140Z,12.57
2023-03-08T19:49:03.834Z,12.24
2023-03-08T19:51:30.562Z,11.70
2023-03-08T19:53:57.733Z,11.81
2023-03-08T19:56:28.330Z,12.41
2023-03-08T19:58:59.401Z,12.10
2023-03-08T20:01:27.496Z,12.45
2023-03-08T20:03:54.790Z,12.81
2023-03-08T20:06:45.706Z,12.67
2023-03-08T20:09:18.293Z,12.89
2023-03-08T20:11:44.985Z,12.73
2023-03-08T20:14:11.616Z,12.30
2023-03-08T20:16:38.587Z,12.90
2023-03-08T20:19:05.892Z,12.49
2023-03-08T20:21:32.603Z,12.48
2023-03-08T20:23:59.787Z,12.51
2023-03-08T20:26:29.763Z,12.51
2023-03-08T20:28:56.838Z,11.79
2023-03-08T20:31:24.553Z,11.75
2023-03-08T20:33:51.346Z,11.95
2023-03-08T20:36:18.041Z,12.41
2023-03-08T20:38:45.037Z,12.60
2023-03-08T20:41:17.236Z,12.35
2023-03-08T20:43:46.906Z,12.27
2023-03-08T20:46:16.094Z,12.12
2023-03-08T20:48:44.576Z,12.32
2023-03-08T20:51:14.218Z,12.84
2023-03-08T20:53:42.159Z,12.73
2023-03-08T20:56:12.952Z,12.08
2023-03-08T20:58:39.679Z,12.19
2023-03-08T21:01:28.277Z,12.49
2023-03-08T21:03:55.237Z,12.53
2023-03-08T21:06:27.561Z,12.32
2023-03-08T21:08:54.447Z,12.31
2023-03-08T21:11:21.788Z,11.93
2023-03-08T21:13:49.725Z,12.46
2023-03-08T21:16:18.653Z,12.25
2023-03-08T21:18:49.433Z,11.88
2023-03-08T21:21:20.198Z,11.81
2023-03-08T21:23:46.788Z,11.77
2023-03-08T21:26:14.254Z,12.04
2023-03-08T21:28:40.917Z,12.60
2023-03-08T21:31:09.509Z,12.12
2023-03-08T21:33:36.190Z,12.50
2023-03-08T21:36:02.991Z,12.01
2023-03-08T21:38:29.614Z,11.89
2023-03-08T21:40:56.281Z,12.12
2023-03-08T21:43:22.892Z,12.22
2023-03-08T21:45:49.585Z,11.85
2023-03-08T21:48:16.235Z,12.24
2023-03-08T21:50:42.874Z,12.14
2023-03-08T21:53:09.551Z,12.35
2023-03-08T21:55:39.914Z,12.20
2023-03-08T21:58:08.304Z,12.53
2023-03-08T22:00:35.562Z,12.34
2023-03-08T22:03:02.285Z,12.41
2023-03-08T22:05:30.253Z,12.41
2023-03-08T22:07:57.396Z,12.42
2023-03-08T22:10:24.094Z,12.34
2023-03-08T22:12:50.755Z,12.08
2023-03-08T22:15:18.200Z,12.42
2023-03-08T22:17:44.997Z,12.46
2023-03-08T22:20:12.432Z,12.30
2023-03-08T22:22:40.076Z,11.91
2023-03-08T22:25:08.128Z,12.09
2023-03-08T22:27:34.851Z,12.05
2023-03-08T22:30:02.479Z,11.95
2023-03-08T22:32:29.209Z,11.40
2023-03-08T22:34:55.930Z,11.49
2023-03-08T22:37:22.893Z,11.97
2023-03-08T22:39:49.606Z,11.99
2023-03-08T22:42:16.753Z,11.57
2023-03-08T22:44:43.556Z,12.16
2023-03-08T22:47:10.378Z,11.67
2023-03-08T22:49:37.182Z,12.08
2023-03-08T22:52:04.761Z,12.07
2023-03-08T22:54:31.397Z,12.26
2023-03-08T22:56:58.210Z,12.11
2023-03-08T22:59:25.773Z,12.27
2023-03-08T23:01:53.580Z,12.17
2023-03-08T23:04:20.812Z,12.72
2023-03-08T23:06:48.040Z,12.11
2023-03-08T23:09:17.094Z,11.80
2023-03-08T23:11:44.807Z,12.09
2023-03-08T23:14:12.293Z,12.77
2023-03-08T23:16:44.056Z,12.65
2023-03-08T23:19:13.504Z,12.73
2023-03-08T23:21:40.195Z,11.83
2023-03-08T23:24:07.090Z,11.83
2023-03-08T23:26:34.681Z,12.08
2023-03-08T23:29:03.584Z,12.34
2023-03-08T23:31:33.181Z,11.81
2023-03-08T23:34:02.954Z,11.91
2023-03-08T23:36:31.241Z,12.16
2023-03-08T23:38:58.682Z,12.67
2023-03-08T23:41:25.861Z,12.04
2023-03-08T23:43:57.254Z,11.97
2023-03-08T23:46:24.657Z,12.48
2023-03-08T23:48:51.786Z,12.85
2023-03-08T23:51:20.678Z,12.81
2023-03-08T23:53:51.994Z,13.17
2023-03-08T23:56:26.986Z,12.97
2023-03-08T23:58:58.994Z,12.41
